sensor_id;sensor_type;location;lat;lon;timestamp;P1;durP1;ratioP1;P2;durP2;ratioP2
57697;SDS011;43531;52.152;6.366;2022-12-07T00:00:24;12.73;;;10.05;;
57697;SDS011;43531;52.152;6.366;2022-12-07T00:01:06;12.93;;;10.23;;
57697;SDS011;43531;52.152;6.366;2022-12-07T00:01:39;11.75;;;10.50;;
57697;SDS011;43531;52.152;6.366;2022-12-07T00:02:12;13.73;;;9.65;;
57697;SDS011;43531;52.152;6.366;2022-12-07T00:02:44;11.02;;;10.02;;
57697;SDS011;43531;52.152;6.366;2022-12-07T00:03:15;13.15;;;10.38;;
57697;SDS011;43531;52.152;6.366;2022-12-07T00:03:48;10.35;;;9.35;;
57697;SDS011;43531;52.152;6.366;2022-12-07T00:04:21;11.00;;;9.23;;
57697;SDS011;43531;52.152;6.366;2022-12-07T00:04:52;11.95;;;10.65;;
57697;SDS011;43531;52.152;6.366;2022-12-07T00:05:24;14.68;;;10.57;;
57697;SDS011;43531;52.152;6.366;2022-12-07T00:05:59;16.13;;;10.73;;
57697;SDS011;43531;52.152;6.366;2022-12-07T00:06:31;13.65;;;9.98;;
57697;SDS011;43531;52.152;6.366;2022-12-07T00:07:10;13.43;;;10.38;;
57697;SDS011;43531;52.152;6.366;2022-12-07T00:07:41;12.73;;;9.85;;
57697;SDS011;43531;52.152;6.366;2022-12-07T00:08:13;14.13;;;10.13;;
57697;SDS011;43531;52.152;6.366;2022-12-07T00:08:45;13.20;;;9.82;;
57697;SDS011;43531;52.152;6.366;2022-12-07T00:09:17;11.93;;;10.45;;
57697;SDS011;43531;52.152;6.366;2022-12-07T00:09:49;12.23;;;9.88;;
57697;SDS011;43531;52.152;6.366;2022-12-07T00:10:20;12.25;;;9.98;;
57697;SDS011;43531;52.152;6.366;2022-12-07T00:10:52;10.38;;;9.27;;
57697;SDS011;43531;52.152;6.366;2022-12-07T00:11:24;14.98;;;10.43;;
57697;SDS011;43531;52.152;6.366;2022-12-07T00:11:55;12.90;;;9.88;;
57697;SDS011;43531;52.152;6.366;2022-12-07T00:12:27;11.63;;;9.93;;
57697;SDS011;43531;52.152;6.366;2022-12-07T00:12:58;19.63;;;10.32;;
57697;SDS011;43531;52.152;6.366;2022-12-07T00:13:30;17.20;;;10.25;;
57697;SDS011;43531;52.152;6.366;2022-12-07T00:14:05;11.90;;;9.27;;
57697;SDS011;43531;52.152;6.366;2022-12-07T00:14:37;12.52;;;10.63;;
57697;SDS011;43531;52.152;6.366;2022-12-07T00:15:09;12.60;;;10.52;;
57697;SDS011;43531;52.152;6.366;2022-12-07T00:15:41;12.10;;;9.68;;
57697;SDS011;43531;52.152;6.366;2022-12-07T00:16:14;17.23;;;10.38;;
57697;SDS011;43531;52.152;6.366;2022-12-07T00:16:48;12.13;;;10.02;;
57697;SDS011;43531;52.152;6.366;2022-12-07T00:17:21;13.90;;;9.85;;
57697;SDS011;43531;52.152;6.366;2022-12-07T00:17:52;14.15;;;9.90;;
57697;SDS011;43531;52.152;6.366;2022-12-07T00:18:24;12.30;;;8.70;;
57697;SDS011;43531;52.152;6.366;2022-12-07T00:18:55;11.35;;;9.48;;
57697;SDS011;43531;52.152;6.366;2022-12-07T00:19:27;11.88;;;10.23;;
57697;SDS011;43531;52.152;6.366;2022-12-07T00:19:59;11.90;;;10.00;;
57697;SDS011;43531;52.152;6.366;2022-12-07T00:20:31;11.85;;;9.18;;
57697;SDS011;43531;52.152;6.366;2022-12-07T00:21:38;9.80;;;8.85;;
57697;SDS011;43531;52.152;6.366;2022-12-07T00:22:10;13.02;;;8.57;;
57697;SDS011;43531;52.152;6.366;2022-12-07T00:22:41;9.55;;;8.55;;
57697;SDS011;43531;52.152;6.366;2022-12-07T00:23:13;17.38;;;9.45;;
57697;SDS011;43531;52.152;6.366;2022-12-07T00:23:45;9.63;;;8.60;;
57697;SDS011;43531;52.152;6.366;2022-12-07T00:24:17;9.98;;;8.98;;
57697;SDS011;43531;52.152;6.366;2022-12-07T00:24:49;8.98;;;8.18;;
57697;SDS011;43531;52.152;6.366;2022-12-07T00:25:20;11.77;;;8.85;;
57697;SDS011;43531;52.152;6.366;2022-12-07T00:25:52;14.55;;;8.82;;
57697;SDS011;43531;52.152;6.366;2022-12-07T00:26:28;11.77;;;9.73;;
57697;SDS011;43531;52.152;6.366;2022-12-07T00:27:03;12.43;;;9.57;;
57697;SDS011;43531;52.152;6.366;2022-12-07T00:27:35;9.20;;;8.30;;
57697;SDS011;43531;52.152;6.366;2022-12-07T00:28:06;13.23;;;9.40;;
57697;SDS011;43531;52.152;6.366;2022-12-07T00:28:44;12.85;;;8.73;;
57697;SDS011;43531;52.152;6.366;2022-12-07T00:29:20;9.82;;;8.82;;
57697;SDS011;43531;52.152;6.366;2022-12-07T00:29:55;10.52;;;8.77;;
57697;SDS011;43531;52.152;6.366;2022-12-07T00:30:26;11.40;;;9.75;;
57697;SDS011;43531;52.152;6.366;2022-12-07T00:31:05;9.10;;;8.20;;
57697;SDS011;43531;52.152;6.366;2022-12-07T00:31:38;14.20;;;8.77;;
57697;SDS011;43531;52.152;6.366;2022-12-07T00:32:10;20.77;;;10.77;;
57697;SDS011;43531;52.152;6.366;2022-12-07T00:32:42;9.88;;;8.82;;
57697;SDS011;43531;52.152;6.366;2022-12-07T00:33:13;10.52;;;8.27;;
57697;SDS011;43531;52.152;6.366;2022-12-07T00:33:45;14.60;;;9.38;;
57697;SDS011;43531;52.152;6.366;2022-12-07T00:34:18;10.57;;;8.90;;
57697;SDS011;43531;52.152;6.366;2022-12-07T00:34:50;9.85;;;8.88;;
57697;SDS011;43531;52.152;6.366;2022-12-07T00:35:22;9.32;;;8.35;;
57697;SDS011;43531;52.152;6.366;2022-12-07T00:35:57;9.90;;;8.85;;
57697;SDS011;43531;52.152;6.366;2022-12-07T00:36:29;10.02;;;8.95;;
57697;SDS011;43531;52.152;6.366;2022-12-07T00:37:01;12.18;;;8.40;;
57697;SDS011;43531;52.152;6.366;2022-12-07T00:37:33;10.40;;;9.18;;
57697;SDS011;43531;52.152;6.366;2022-12-07T00:38:04;10.98;;;8.10;;
57697;SDS011;43531;52.152;6.366;2022-12-07T00:38:36;11.95;;;8.80;;
57697;SDS011;43531;52.152;6.366;2022-12-07T00:39:09;9.55;;;8.60;;
57697;SDS011;43531;52.152;6.366;2022-12-07T00:39:40;8.82;;;7.88;;
57697;SDS011;43531;52.152;6.366;2022-12-07T00:40:12;9.40;;;8.45;;
57697;SDS011;43531;52.152;6.366;2022-12-07T00:40:43;11.82;;;7.93;;
57697;SDS011;43531;52.152;6.366;2022-12-07T00:41:18;10.38;;;9.23;;
57697;SDS011;43531;52.152;6.366;2022-12-07T00:41:51;10.55;;;8.65;;
57697;SDS011;43531;52.152;6.366;2022-12-07T00:42:23;12.52;;;8.85;;
57697;SDS011;43531;52.152;6.366;2022-12-07T00:42:54;10.80;;;8.60;;
57697;SDS011;43531;52.152;6.366;2022-12-07T00:43:26;13.52;;;8.60;;
57697;SDS011;43531;52.152;6.366;2022-12-07T00:43:58;11.70;;;8.30;;
57697;SDS011;43531;52.152;6.366;2022-12-07T00:44:29;8.52;;;7.18;;
57697;SDS011;43531;52.152;6.366;2022-12-07T00:45:01;10.75;;;8.93;;
57697;SDS011;43531;52.152;6.366;2022-12-07T00:45:32;13.20;;;8.93;;
57697;SDS011;43531;52.152;6.366;2022-12-07T00:46:04;12.93;;;8.68;;
57697;SDS011;43531;52.152;6.366;2022-12-07T00:46:36;10.18;;;7.95;;
57697;SDS011;43531;52.152;6.366;2022-12-07T00:47:07;14.98;;;8.25;;
57697;SDS011;43531;52.152;6.366;2022-12-07T00:47:39;9.73;;;8.40;;
57697;SDS011;43531;52.152;6.366;2022-12-07T00:48:10;17.25;;;9.15;;
57697;SDS011;43531;52.152;6.366;2022-12-07T00:48:42;10.10;;;8.18;;
57697;SDS011;43531;52.152;6.366;2022-12-07T00:49:13;9.85;;;7.82;;
57697;SDS011;43531;52.152;6.366;2022-12-07T00:49:45;9.57;;;8.23;;
57697;SDS011;43531;52.152;6.366;2022-12-07T00:50:16;11.45;;;7.75;;
57697;SDS011;43531;52.152;6.366;2022-12-07T00:50:48;9.82;;;7.82;;
57697;SDS011;43531;52.152;6.366;2022-12-07T00:51:21;10.07;;;8.57;;
57697;SDS011;43531;52.152;6.366;2022-12-07T00:51:55;12.00;;;7.70;;
57697;SDS011;43531;52.152;6.366;2022-12-07T00:52:27;10.10;;;7.25;;
57697;SDS011;43531;52.152;6.366;2022-12-07T00:52:58;11.05;;;8.30;;
57697;SDS011;43531;52.152;6.366;2022-12-07T00:53:30;12.10;;;7.88;;
57697;SDS011;43531;52.152;6.366;2022-12-07T00:54:08;9.80;;;7.15;;
57697;SDS011;43531;52.152;6.366;2022-12-07T00:54:39;12.02;;;7.50;;
57697;SDS011;43531;52.152;6.366;2022-12-07T00:55:11;10.13;;;8.32;;
57697;SDS011;43531;52.152;6.366;2022-12-07T00:55:43;13.25;;;7.88;;
57697;SDS011;43531;52.152;6.366;2022-12-07T00:56:16;8.50;;;7.60;;
57697;SDS011;43531;52.152;6.366;2022-12-07T00:56:48;8.18;;;7.22;;
57697;SDS011;43531;52.152;6.366;2022-12-07T00:57:20;13.38;;;8.20;;
57697;SDS011;43531;52.152;6.366;2022-12-07T00:57:52;10.05;;;7.50;;
57697;SDS011;43531;52.152;6.366;2022-12-07T00:58:23;7.95;;;6.95;;
57697;SDS011;43531;52.152;6.366;2022-12-07T00:59:02;8.85;;;7.55;;
57697;SDS011;43531;52.152;6.366;2022-12-07T00:59:34;8.32;;;7.32;;
57697;SDS011;43531;52.152;6.366;2022-12-07T01:00:06;10.18;;;7.63;;
57697;SDS011;43531;52.152;6.366;2022-12-07T01:00:39;8.40;;;7.43;;
57697;SDS011;43531;52.152;6.366;2022-12-07T01:01:12;11.68;;;7.65;;
57697;SDS011;43531;52.152;6.366;2022-12-07T01:01:44;12.50;;;7.00;;
57697;SDS011;43531;52.152;6.366;2022-12-07T01:02:15;10.30;;;6.85;;
57697;SDS011;43531;52.152;6.366;2022-12-07T01:02:47;10.80;;;7.38;;
57697;SDS011;43531;52.152;6.366;2022-12-07T01:03:18;13.20;;;8.05;;
57697;SDS011;43531;52.152;6.366;2022-12-07T01:03:50;13.50;;;7.95;;
57697;SDS011;43531;52.152;6.366;2022-12-07T01:04:22;10.85;;;7.05;;
57697;SDS011;43531;52.152;6.366;2022-12-07T01:04:53;10.93;;;7.13;;
57697;SDS011;43531;52.152;6.366;2022-12-07T01:05:25;10.70;;;7.72;;
57697;SDS011;43531;52.152;6.366;2022-12-07T01:05:57;20.67;;;8.82;;
57697;SDS011;43531;52.152;6.366;2022-12-07T01:06:28;11.45;;;7.93;;
57697;SDS011;43531;52.152;6.366;2022-12-07T01:07:00;12.98;;;7.20;;
57697;SDS011;43531;52.152;6.366;2022-12-07T01:07:32;11.55;;;7.22;;
57697;SDS011;43531;52.152;6.366;2022-12-07T01:08:03;11.40;;;7.15;;
57697;SDS011;43531;52.152;6.366;2022-12-07T01:08:35;11.77;;;7.07;;
57697;SDS011;43531;52.152;6.366;2022-12-07T01:09:07;8.68;;;7.07;;
57697;SDS011;43531;52.152;6.366;2022-12-07T01:09:38;12.35;;;7.40;;
57697;SDS011;43531;52.152;6.366;2022-12-07T01:10:10;7.75;;;6.38;;
57697;SDS011;43531;52.152;6.366;2022-12-07T01:10:41;8.25;;;7.10;;
57697;SDS011;43531;52.152;6.366;2022-12-07T01:11:14;8.77;;;6.78;;
57697;SDS011;43531;52.152;6.366;2022-12-07T01:11:47;8.70;;;6.70;;
57697;SDS011;43531;52.152;6.366;2022-12-07T01:12:19;8.60;;;6.57;;
57697;SDS011;43531;52.152;6.366;2022-12-07T01:12:50;7.55;;;6.75;;
57697;SDS011;43531;52.152;6.366;2022-12-07T01:13:22;8.88;;;6.85;;
57697;SDS011;43531;52.152;6.366;2022-12-07T01:13:54;7.78;;;6.65;;
57697;SDS011;43531;52.152;6.366;2022-12-07T01:14:26;9.88;;;7.28;;
57697;SDS011;43531;52.152;6.366;2022-12-07T01:14:58;10.80;;;6.80;;
57697;SDS011;43531;52.152;6.366;2022-12-07T01:15:29;8.43;;;7.05;;
57697;SDS011;43531;52.152;6.366;2022-12-07T01:16:03;12.63;;;7.18;;
57697;SDS011;43531;52.152;6.366;2022-12-07T01:16:35;10.63;;;6.85;;
57697;SDS011;43531;52.152;6.366;2022-12-07T01:17:07;12.25;;;5.85;;
57697;SDS011;43531;52.152;6.366;2022-12-07T01:17:39;8.18;;;6.57;;
57697;SDS011;43531;52.152;6.366;2022-12-07T01:18:10;8.27;;;6.43;;
57697;SDS011;43531;52.152;6.366;2022-12-07T01:18:45;9.00;;;7.15;;
57697;SDS011;43531;52.152;6.366;2022-12-07T01:19:17;9.05;;;6.40;;
57697;SDS011;43531;52.152;6.366;2022-12-07T01:19:49;9.13;;;6.40;;
57697;SDS011;43531;52.152;6.366;2022-12-07T01:20:20;10.93;;;6.65;;
57697;SDS011;43531;52.152;6.366;2022-12-07T01:21:02;11.77;;;7.18;;
57697;SDS011;43531;52.152;6.366;2022-12-07T01:21:38;10.27;;;6.03;;
57697;SDS011;43531;52.152;6.366;2022-12-07T01:22:10;7.93;;;6.38;;
57697;SDS011;43531;52.152;6.366;2022-12-07T01:22:42;8.80;;;6.28;;
57697;SDS011;43531;52.152;6.366;2022-12-07T01:23:14;8.50;;;6.00;;
57697;SDS011;43531;52.152;6.366;2022-12-07T01:23:46;10.35;;;6.65;;
57697;SDS011;43531;52.152;6.366;2022-12-07T01:24:18;11.00;;;6.03;;
57697;SDS011;43531;52.152;6.366;2022-12-07T01:24:49;7.70;;;6.18;;
57697;SDS011;43531;52.152;6.366;2022-12-07T01:25:20;6.70;;;5.93;;
57697;SDS011;43531;52.152;6.366;2022-12-07T01:25:59;6.43;;;5.65;;
57697;SDS011;43531;52.152;6.366;2022-12-07T01:26:31;8.63;;;5.90;;
57697;SDS011;43531;52.152;6.366;2022-12-07T01:27:03;9.73;;;5.95;;
57697;SDS011;43531;52.152;6.366;2022-12-07T01:27:34;8.05;;;5.88;;
57697;SDS011;43531;52.152;6.366;2022-12-07T01:28:06;7.80;;;5.43;;
57697;SDS011;43531;52.152;6.366;2022-12-07T01:28:38;8.77;;;5.63;;
57697;SDS011;43531;52.152;6.366;2022-12-07T01:29:10;10.70;;;5.55;;
57697;SDS011;43531;52.152;6.366;2022-12-07T01:29:41;9.52;;;5.63;;
57697;SDS011;43531;52.152;6.366;2022-12-07T01:30:13;6.63;;;5.40;;
57697;SDS011;43531;52.152;6.366;2022-12-07T01:30:45;13.32;;;6.28;;
57697;SDS011;43531;52.152;6.366;2022-12-07T01:31:34;11.85;;;5.15;;
57697;SDS011;43531;52.152;6.366;2022-12-07T01:32:06;7.78;;;5.68;;
57697;SDS011;43531;52.152;6.366;2022-12-07T01:32:37;10.13;;;5.90;;
57697;SDS011;43531;52.152;6.366;2022-12-07T01:33:09;9.43;;;5.88;;
57697;SDS011;43531;52.152;6.366;2022-12-07T01:33:41;10.27;;;6.07;;
57697;SDS011;43531;52.152;6.366;2022-12-07T01:34:14;9.25;;;5.57;;
57697;SDS011;43531;52.152;6.366;2022-12-07T01:34:47;9.27;;;5.05;;
57697;SDS011;43531;52.152;6.366;2022-12-07T01:35:19;7.43;;;5.63;;
57697;SDS011;43531;52.152;6.366;2022-12-07T01:35:50;5.47;;;4.57;;
57697;SDS011;43531;52.152;6.366;2022-12-07T01:36:23;5.65;;;5.05;;
57697;SDS011;43531;52.152;6.366;2022-12-07T01:36:56;10.45;;;4.85;;
57697;SDS011;43531;52.152;6.366;2022-12-07T01:37:27;7.97;;;5.03;;
57697;SDS011;43531;52.152;6.366;2022-12-07T01:37:59;6.88;;;4.88;;
57697;SDS011;43531;52.152;6.366;2022-12-07T01:38:31;7.78;;;5.22;;
57697;SDS011;43531;52.152;6.366;2022-12-07T01:39:04;6.95;;;5.07;;
57697;SDS011;43531;52.152;6.366;2022-12-07T01:39:37;9.93;;;5.72;;
57697;SDS011;43531;52.152;6.366;2022-12-07T01:40:09;7.43;;;5.63;;
57697;SDS011;43531;52.152;6.366;2022-12-07T01:40:41;8.50;;;5.63;;
57697;SDS011;43531;52.152;6.366;2022-12-07T01:41:13;8.48;;;4.68;;
57697;SDS011;43531;52.152;6.366;2022-12-07T01:41:45;7.40;;;5.32;;
57697;SDS011;43531;52.152;6.366;2022-12-07T01:42:17;13.65;;;4.78;;
57697;SDS011;43531;52.152;6.366;2022-12-07T01:42:49;8.43;;;5.43;;
57697;SDS011;43531;52.152;6.366;2022-12-07T01:43:21;5.25;;;4.60;;
57697;SDS011;43531;52.152;6.366;2022-12-07T01:45:37;11.55;;;4.03;;
57697;SDS011;43531;52.152;6.366;2022-12-07T01:46:10;5.88;;;3.63;;
57697;SDS011;43531;52.152;6.366;2022-12-07T01:46:46;6.00;;;3.60;;
57697;SDS011;43531;52.152;6.366;2022-12-07T01:47:19;4.53;;;3.60;;
57697;SDS011;43531;52.152;6.366;2022-12-07T01:47:52;4.57;;;3.33;;
57697;SDS011;43531;52.152;6.366;2022-12-07T01:48:32;8.73;;;3.78;;
57697;SDS011;43531;52.152;6.366;2022-12-07T01:49:08;11.45;;;5.13;;
57697;SDS011;43531;52.152;6.366;2022-12-07T01:49:46;5.80;;;3.17;;
57697;SDS011;43531;52.152;6.366;2022-12-07T01:50:20;11.55;;;5.55;;
57697;SDS011;43531;52.152;6.366;2022-12-07T01:50:53;7.43;;;3.97;;
57697;SDS011;43531;52.152;6.366;2022-12-07T01:51:27;5.30;;;3.65;;
57697;SDS011;43531;52.152;6.366;2022-12-07T01:52:05;6.32;;;4.57;;
57697;SDS011;43531;52.152;6.366;2022-12-07T01:52:43;6.00;;;3.53;;
57697;SDS011;43531;52.152;6.366;2022-12-07T01:53:15;3.95;;;3.40;;
57697;SDS011;43531;52.152;6.366;2022-12-07T01:53:47;4.72;;;3.97;;
57697;SDS011;43531;52.152;6.366;2022-12-07T01:54:19;9.13;;;3.75;;
57697;SDS011;43531;52.152;6.366;2022-12-07T01:54:55;4.35;;;3.00;;
57697;SDS011;43531;52.152;6.366;2022-12-07T01:55:28;8.38;;;3.10;;
57697;SDS011;43531;52.152;6.366;2022-12-07T01:56:00;8.65;;;3.70;;
57697;SDS011;43531;52.152;6.366;2022-12-07T01:56:32;7.57;;;3.35;;
57697;SDS011;43531;52.152;6.366;2022-12-07T01:57:04;12.35;;;4.93;;
57697;SDS011;43531;52.152;6.366;2022-12-07T01:57:39;6.57;;;3.33;;
57697;SDS011;43531;52.152;6.366;2022-12-07T01:58:13;6.82;;;3.72;;
57697;SDS011;43531;52.152;6.366;2022-12-07T01:58:46;12.15;;;3.13;;
57697;SDS011;43531;52.152;6.366;2022-12-07T01:59:18;4.85;;;3.33;;
57697;SDS011;43531;52.152;6.366;2022-12-07T01:59:51;7.00;;;3.35;;
57697;SDS011;43531;52.152;6.366;2022-12-07T02:00:23;9.55;;;3.70;;
57697;SDS011;43531;52.152;6.366;2022-12-07T02:00:54;7.40;;;3.08;;
57697;SDS011;43531;52.152;6.366;2022-12-07T02:01:26;4.72;;;3.50;;
57697;SDS011;43531;52.152;6.366;2022-12-07T02:01:58;7.20;;;2.85;;
57697;SDS011;43531;52.152;6.366;2022-12-07T02:02:31;6.03;;;3.15;;
57697;SDS011;43531;52.152;6.366;2022-12-07T02:03:06;7.90;;;4.13;;
57697;SDS011;43531;52.152;6.366;2022-12-07T02:03:40;4.20;;;3.33;;
57697;SDS011;43531;52.152;6.366;2022-12-07T02:04:13;8.98;;;3.67;;
57697;SDS011;43531;52.152;6.366;2022-12-07T02:04:45;18.30;;;3.30;;
57697;SDS011;43531;52.152;6.366;2022-12-07T02:05:17;6.32;;;2.67;;
57697;SDS011;43531;52.152;6.366;2022-12-07T02:05:49;6.63;;;3.53;;
57697;SDS011;43531;52.152;6.366;2022-12-07T02:06:22;10.82;;;3.75;;
57697;SDS011;43531;52.152;6.366;2022-12-07T02:06:55;4.93;;;2.90;;
57697;SDS011;43531;52.152;6.366;2022-12-07T02:07:29;4.03;;;2.80;;
57697;SDS011;43531;52.152;6.366;2022-12-07T02:08:00;4.47;;;3.05;;
57697;SDS011;43531;52.152;6.366;2022-12-07T02:08:33;6.80;;;3.58;;
57697;SDS011;43531;52.152;6.366;2022-12-07T02:09:05;6.35;;;3.03;;
57697;SDS011;43531;52.152;6.366;2022-12-07T02:09:37;5.90;;;3.17;;
57697;SDS011;43531;52.152;6.366;2022-12-07T02:10:49;5.40;;;3.20;;
57697;SDS011;43531;52.152;6.366;2022-12-07T02:11:20;5.25;;;2.83;;
57697;SDS011;43531;52.152;6.366;2022-12-07T02:11:52;7.22;;;3.58;;
57697;SDS011;43531;52.152;6.366;2022-12-07T02:12:24;9.35;;;2.72;;
57697;SDS011;43531;52.152;6.366;2022-12-07T02:13:36;10.77;;;2.80;;
57697;SDS011;43531;52.152;6.366;2022-12-07T02:14:09;8.18;;;2.47;;
57697;SDS011;43531;52.152;6.366;2022-12-07T02:14:41;16.13;;;4.63;;
57697;SDS011;43531;52.152;6.366;2022-12-07T02:15:12;7.30;;;3.17;;
57697;SDS011;43531;52.152;6.366;2022-12-07T02:19:57;6.35;;;2.50;;
57697;SDS011;43531;52.152;6.366;2022-12-07T02:20:43;5.75;;;2.65;;
57697;SDS011;43531;52.152;6.366;2022-12-07T02:24:03;6.63;;;2.47;;
57697;SDS011;43531;52.152;6.366;2022-12-07T02:25:57;4.25;;;2.17;;
57697;SDS011;43531;52.152;6.366;2022-12-07T02:26:42;9.75;;;2.30;;
57697;SDS011;43531;52.152;6.366;2022-12-07T02:30:03;2.30;;;2.10;;
57697;SDS011;43531;52.152;6.366;2022-12-07T02:30:39;7.05;;;2.25;;
57697;SDS011;43531;52.152;6.366;2022-12-07T02:31:18;4.95;;;1.88;;
57697;SDS011;43531;52.152;6.366;2022-12-07T02:31:56;7.40;;;2.60;;
57697;SDS011;43531;52.152;6.366;2022-12-07T02:33:05;5.15;;;2.50;;
57697;SDS011;43531;52.152;6.366;2022-12-07T02:33:46;5.32;;;2.67;;
57697;SDS011;43531;52.152;6.366;2022-12-07T02:34:24;8.57;;;2.55;;
57697;SDS011;43531;52.152;6.366;2022-12-07T02:36:09;3.15;;;1.90;;
57697;SDS011;43531;52.152;6.366;2022-12-07T02:36:44;4.72;;;2.28;;
57697;SDS011;43531;52.152;6.366;2022-12-07T02:37:21;5.63;;;2.55;;
57697;SDS011;43531;52.152;6.366;2022-12-07T02:38:06;3.25;;;2.47;;
57697;SDS011;43531;52.152;6.366;2022-12-07T02:39:08;4.03;;;2.33;;
57697;SDS011;43531;52.152;6.366;2022-12-07T02:39:56;5.70;;;2.70;;
57697;SDS011;43531;52.152;6.366;2022-12-07T02:40:33;6.70;;;2.30;;
57697;SDS011;43531;52.152;6.366;2022-12-07T02:41:08;2.83;;;2.45;;
57697;SDS011;43531;52.152;6.366;2022-12-07T02:41:43;4.43;;;2.10;;
57697;SDS011;43531;52.152;6.366;2022-12-07T02:42:18;5.55;;;2.60;;
57697;SDS011;43531;52.152;6.366;2022-12-07T02:44:00;9.43;;;2.55;;
57697;SDS011;43531;52.152;6.366;2022-12-07T02:44:33;5.97;;;2.70;;
57697;SDS011;43531;52.152;6.366;2022-12-07T02:45:05;12.07;;;3.13;;
57697;SDS011;43531;52.152;6.366;2022-12-07T02:45:38;2.80;;;2.10;;
57697;SDS011;43531;52.152;6.366;2022-12-07T02:46:14;7.38;;;2.35;;
57697;SDS011;43531;52.152;6.366;2022-12-07T02:46:52;4.85;;;2.53;;
57697;SDS011;43531;52.152;6.366;2022-12-07T02:47:26;4.78;;;1.90;;
57697;SDS011;43531;52.152;6.366;2022-12-07T02:48:00;4.15;;;1.77;;
57697;SDS011;43531;52.152;6.366;2022-12-07T02:48:32;3.40;;;2.08;;
57697;SDS011;43531;52.152;6.366;2022-12-07T02:49:04;7.32;;;3.25;;
57697;SDS011;43531;52.152;6.366;2022-12-07T02:49:36;5.28;;;2.33;;
57697;SDS011;43531;52.152;6.366;2022-12-07T02:50:09;2.53;;;1.83;;
57697;SDS011;43531;52.152;6.366;2022-12-07T02:50:45;9.93;;;2.30;;
57697;SDS011;43531;52.152;6.366;2022-12-07T02:51:19;5.32;;;2.45;;
57697;SDS011;43531;52.152;6.366;2022-12-07T02:51:51;5.05;;;2.13;;
57697;SDS011;43531;52.152;6.366;2022-12-07T02:52:23;3.67;;;2.17;;
57697;SDS011;43531;52.152;6.366;2022-12-07T02:52:55;7.13;;;3.28;;
57697;SDS011;43531;52.152;6.366;2022-12-07T02:53:34;4.45;;;2.15;;
57697;SDS011;43531;52.152;6.366;2022-12-07T02:54:14;4.38;;;2.20;;
57697;SDS011;43531;52.152;6.366;2022-12-07T02:54:48;7.22;;;2.45;;
57697;SDS011;43531;52.152;6.366;2022-12-07T02:55:21;12.95;;;2.92;;
57697;SDS011;43531;52.152;6.366;2022-12-07T02:55:56;8.30;;;2.08;;
57697;SDS011;43531;52.152;6.366;2022-12-07T02:56:46;3.05;;;2.63;;
57697;SDS011;43531;52.152;6.366;2022-12-07T02:58:20;3.28;;;1.77;;
57697;SDS011;43531;52.152;6.366;2022-12-07T03:00:00;4.00;;;1.52;;
57697;SDS011;43531;52.152;6.366;2022-12-07T03:00:44;6.13;;;2.22;;
57697;SDS011;43531;52.152;6.366;2022-12-07T03:01:28;7.78;;;2.55;;
57697;SDS011;43531;52.152;6.366;2022-12-07T03:03:09;3.78;;;2.80;;
57697;SDS011;43531;52.152;6.366;2022-12-07T03:03:42;6.90;;;1.83;;
57697;SDS011;43531;52.152;6.366;2022-12-07T03:04:28;10.85;;;2.22;;
57697;SDS011;43531;52.152;6.366;2022-12-07T03:06:36;3.03;;;1.95;;
57697;SDS011;43531;52.152;6.366;2022-12-07T03:08:02;2.95;;;2.17;;
57697;SDS011;43531;52.152;6.366;2022-12-07T03:09:51;6.25;;;2.08;;
57697;SDS011;43531;52.152;6.366;2022-12-07T03:11:10;6.30;;;2.38;;
57697;SDS011;43531;52.152;6.366;2022-12-07T03:11:54;2.33;;;2.10;;
57697;SDS011;43531;52.152;6.366;2022-12-07T03:13:19;3.38;;;2.78;;
57697;SDS011;43531;52.152;6.366;2022-12-07T03:15:06;7.05;;;2.13;;
57697;SDS011;43531;52.152;6.366;2022-12-07T03:16:02;6.07;;;2.22;;
57697;SDS011;43531;52.152;6.366;2022-12-07T03:16:41;6.53;;;2.75;;
57697;SDS011;43531;52.152;6.366;2022-12-07T03:17:21;5.22;;;2.03;;
57697;SDS011;43531;52.152;6.366;2022-12-07T03:17:56;2.17;;;1.80;;
57697;SDS011;43531;52.152;6.366;2022-12-07T03:18:30;6.68;;;2.60;;
57697;SDS011;43531;52.152;6.366;2022-12-07T03:19:14;4.57;;;2.47;;
57697;SDS011;43531;52.152;6.366;2022-12-07T03:19:48;8.45;;;3.53;;
57697;SDS011;43531;52.152;6.366;2022-12-07T03:20:22;15.48;;;2.08;;
57697;SDS011;43531;52.152;6.366;2022-12-07T03:20:57;9.27;;;2.88;;
57697;SDS011;43531;52.152;6.366;2022-12-07T03:21:32;7.13;;;2.75;;
57697;SDS011;43531;52.152;6.366;2022-12-07T03:22:07;5.30;;;1.70;;
57697;SDS011;43531;52.152;6.366;2022-12-07T03:22:42;6.38;;;2.47;;
57697;SDS011;43531;52.152;6.366;2022-12-07T03:23:14;5.10;;;2.20;;
57697;SDS011;43531;52.152;6.366;2022-12-07T03:23:56;14.10;;;3.40;;
57697;SDS011;43531;52.152;6.366;2022-12-07T03:24:31;2.17;;;1.98;;
57697;SDS011;43531;52.152;6.366;2022-12-07T03:25:11;12.30;;;2.25;;
57697;SDS011;43531;52.152;6.366;2022-12-07T03:25:46;5.13;;;2.08;;
57697;SDS011;43531;52.152;6.366;2022-12-07T03:26:20;3.95;;;2.03;;
57697;SDS011;43531;52.152;6.366;2022-12-07T03:26:55;6.55;;;2.53;;
57697;SDS011;43531;52.152;6.366;2022-12-07T03:27:47;5.90;;;2.13;;
57697;SDS011;43531;52.152;6.366;2022-12-07T03:28:22;5.53;;;2.20;;
57697;SDS011;43531;52.152;6.366;2022-12-07T03:28:55;7.40;;;3.03;;
57697;SDS011;43531;52.152;6.366;2022-12-07T03:29:43;4.18;;;2.03;;
57697;SDS011;43531;52.152;6.366;2022-12-07T03:30:33;8.32;;;1.88;;
57697;SDS011;43531;52.152;6.366;2022-12-07T03:31:12;8.55;;;2.13;;
57697;SDS011;43531;52.152;6.366;2022-12-07T03:31:48;11.48;;;2.53;;
57697;SDS011;43531;52.152;6.366;2022-12-07T03:32:36;6.63;;;2.38;;
57697;SDS011;43531;52.152;6.366;2022-12-07T03:33:12;7.32;;;2.42;;
57697;SDS011;43531;52.152;6.366;2022-12-07T03:33:52;7.05;;;2.03;;
57697;SDS011;43531;52.152;6.366;2022-12-07T03:34:44;7.50;;;2.05;;
57697;SDS011;43531;52.152;6.366;2022-12-07T03:35:20;2.65;;;2.00;;
57697;SDS011;43531;52.152;6.366;2022-12-07T03:36:04;9.23;;;2.17;;
57697;SDS011;43531;52.152;6.366;2022-12-07T03:36:43;4.97;;;1.73;;
57697;SDS011;43531;52.152;6.366;2022-12-07T03:37:20;3.30;;;2.33;;
57697;SDS011;43531;52.152;6.366;2022-12-07T03:37:57;4.63;;;2.25;;
57697;SDS011;43531;52.152;6.366;2022-12-07T03:39:58;8.75;;;2.55;;
57697;SDS011;43531;52.152;6.366;2022-12-07T03:40:46;6.20;;;3.03;;
57697;SDS011;43531;52.152;6.366;2022-12-07T03:41:25;5.50;;;2.50;;
57697;SDS011;43531;52.152;6.366;2022-12-07T03:41:58;4.38;;;2.45;;
57697;SDS011;43531;52.152;6.366;2022-12-07T03:42:31;5.55;;;2.28;;
57697;SDS011;43531;52.152;6.366;2022-12-07T03:43:02;12.18;;;3.28;;
57697;SDS011;43531;52.152;6.366;2022-12-07T03:43:34;6.18;;;1.90;;
57697;SDS011;43531;52.152;6.366;2022-12-07T03:44:07;8.38;;;2.25;;
57697;SDS011;43531;52.152;6.366;2022-12-07T03:44:39;5.68;;;1.85;;
57697;SDS011;43531;52.152;6.366;2022-12-07T03:45:12;2.97;;;1.77;;
57697;SDS011;43531;52.152;6.366;2022-12-07T03:45:47;12.85;;;2.35;;
57697;SDS011;43531;52.152;6.366;2022-12-07T03:46:57;10.13;;;1.83;;
57697;SDS011;43531;52.152;6.366;2022-12-07T03:47:32;6.88;;;1.70;;
57697;SDS011;43531;52.152;6.366;2022-12-07T03:50:11;11.13;;;2.83;;
57697;SDS011;43531;52.152;6.366;2022-12-07T03:52:59;7.28;;;1.70;;
57697;SDS011;43531;52.152;6.366;2022-12-07T03:53:46;3.65;;;1.65;;
57697;SDS011;43531;52.152;6.366;2022-12-07T03:54:26;4.13;;;2.03;;
57697;SDS011;43531;52.152;6.366;2022-12-07T03:55:54;8.18;;;2.10;;
57697;SDS011;43531;52.152;6.366;2022-12-07T03:56:27;5.93;;;2.00;;
57697;SDS011;43531;52.152;6.366;2022-12-07T03:56:59;9.07;;;3.08;;
57697;SDS011;43531;52.152;6.366;2022-12-07T03:57:33;6.80;;;1.95;;
57697;SDS011;43531;52.152;6.366;2022-12-07T03:58:06;9.02;;;2.25;;
57697;SDS011;43531;52.152;6.366;2022-12-07T03:58:40;4.95;;;1.70;;
57697;SDS011;43531;52.152;6.366;2022-12-07T03:59:13;3.95;;;1.60;;